Time;durP1;ratioP1;P1;durP2;ratioP2;P2;SDS_P1;SDS_P2;PMS_P1;PMS_P2;Temp;Humidity;BMP_temperature;BMP_pressure;BME280_temperature;BME280_humidity;BME280_pressure;Samples;Min_cycle;Max_cycle;Signal;HPM_P1;HPM_P2
2022/11/26 00:00:20;;;;;;;27.30;11.25;;;;;;;3.74;100.00;102384.72;1033325;28;20783;-84
2022/11/26 00:00:51;;;;;;;26.67;11.05;;;;;;;3.76;100.00;102392.47;1034735;28;20300;-84
2022/11/26 00:01:23;;;;;;;28.30;10.43;;;;;;;3.65;100.00;102393.41;1028858;28;20765;-84
2022/11/26 00:01:55;;;;;;;25.10;10.63;;;;;;;3.64;100.00;102397.03;1028037;28;20428;-84
2022/11/26 00:02:28;;;;;;;40.47;11.35;;;;;;;3.50;100.00;102403.47;1031134;28;20324;-84
2022/11/26 00:03:00;;;;;;;23.80;10.90;;;;;;;3.62;100.00;102397.16;1030083;28;20301;-84
2022/11/26 00:03:32;;;;;;;50.38;14.25;;;;;;;3.64;100.00;102399.66;1035517;28;20312;-84
2022/11/26 00:04:03;;;;;;;35.65;12.65;;;;;;;3.70;100.00;102399.97;1032321;28;20296;-84
2022/11/26 00:04:35;;;;;;;48.90;13.32;;;;;;;3.69;100.00;102392.19;1031701;28;20447;-84
2022/11/26 00:05:10;;;;;;;21.48;10.70;;;;;;;3.65;100.00;102394.25;1034769;28;20898;-84
2022/11/26 00:05:44;;;;;;;41.63;15.05;;;;;;;3.64;100.00;102399.66;1032167;28;20325;-84
2022/11/26 00:06:36;;;;;;;23.30;10.52;;;;;;;3.77;100.00;102400.25;1035102;28;20332;-84
2022/11/26 00:07:10;;;;;;;15.55;10.15;;;;;;;3.78;100.00;102399.28;1030908;28;20297;-84
2022/11/26 00:07:51;;;;;;;24.63;12.82;;;;;;;3.84;100.00;102398.78;1030750;28;20292;-84
2022/11/26 00:08:27;;;;;;;;;;;;;;;3.80;100.00;102397.34;1031494;28;20492;-84
2022/11/26 00:08:59;;;;;;;32.22;9.98;;;;;;;3.90;100.00;102403.50;1027119;28;20025;-84
2022/11/26 00:09:30;;;;;;;177.88;20.80;;;;;;;3.74;100.00;102400.53;1031527;28;20662;-84
2022/11/26 00:10:04;;;;;;;43.28;12.63;;;;;;;3.58;100.00;102403.66;1036483;28;20386;-84
2022/11/26 00:10:35;;;;;;;21.88;9.73;;;;;;;3.73;100.00;102396.22;1035857;28;20297;-84
2022/11/26 00:11:12;;;;;;;31.77;11.05;;;;;;;3.67;100.00;102399.38;1037715;28;20288;-84
2022/11/26 00:11:43;;;;;;;101.75;16.65;;;;;;;3.52;100.00;102403.34;1034863;28;20424;-84
2022/11/26 00:12:20;;;;;;;39.70;10.70;;;;;;;3.45;100.00;102416.19;1027855;28;20326;-84
2022/11/26 00:12:54;;;;;;;64.15;12.40;;;;;;;3.38;100.00;102405.38;1030278;28;20301;-84
2022/11/26 00:13:27;;;;;;;16.58;10.18;;;;;;;3.46;100.00;102409.97;1030889;28;20310;-84
2022/11/26 00:13:59;;;;;;;26.13;10.23;;;;;;;3.48;100.00;102412.47;1034447;28;20298;-84
2022/11/26 00:14:33;;;;;;;274.20;29.50;;;;;;;3.31;100.00;102412.13;1035856;28;20394;-84
2022/11/26 00:15:18;;;;;;;30.10;10.63;;;;;;;3.41;100.00;102410.38;1034599;28;20811;-84
2022/11/26 00:15:50;;;;;;;28.48;10.85;;;;;;;3.51;100.00;102412.19;1031983;28;20812;-84
2022/11/26 00:16:22;;;;;;;43.13;12.20;;;;;;;3.41;100.00;102414.81;1029369;28;20396;-84
2022/11/26 00:16:53;;;;;;;22.08;10.65;;;;;;;3.44;100.00;102413.69;1030959;28;20403;-84
2022/11/26 00:17:25;;;;;;;18.25;10.13;;;;;;;3.50;100.00;102415.81;1027634;28;20364;-84
2022/11/26 00:17:57;;;;;;;30.65;10.40;;;;;;;3.45;100.00;102415.38;1031169;28;20304;-83
2022/11/26 00:18:28;;;;;;;31.35;10.10;;;;;;;3.43;100.00;102418.13;1038970;28;20772;-84
2022/11/26 00:19:00;;;;;;;57.28;11.80;;;;;;;3.29;100.00;102421.13;1039250;28;20353;-84
2022/11/26 00:19:31;;;;;;;48.58;13.02;;;;;;;3.34;100.00;102419.75;1034729;28;20799;-84
2022/11/26 00:20:03;;;;;;;22.75;9.18;;;;;;;3.33;100.00;102420.72;1030708;28;20710;-84
2022/11/26 00:20:35;;;;;;;92.13;14.65;;;;;;;3.38;100.00;102421.16;1028673;28;20373;-84
2022/11/26 00:21:19;;;;;;;24.52;12.40;;;;;;;3.49;100.00;102427.31;1027976;28;20294;-84
2022/11/26 00:21:51;;;;;;;18.63;10.00;;;;;;;3.52;100.00;102419.13;1037139;28;20328;-84
2022/11/26 00:22:25;;;;;;;22.27;9.52;;;;;;;3.49;100.00;102424.66;1038850;28;20339;-84
2022/11/26 00:23:00;;;;;;;39.75;11.00;;;;;;;3.41;100.00;102425.34;1034981;28;20297;-84
2022/11/26 00:23:31;;;;;;;19.95;9.57;;;;;;;3.43;100.00;102426.03;1036180;28;20813;-84
2022/11/26 00:24:03;;;;;;;38.53;11.38;;;;;;;3.42;100.00;102422.56;1035097;28;20387;-84
2022/11/26 00:24:35;;;;;;;25.27;10.35;;;;;;;3.45;100.00;102431.16;1028852;28;20421;-84
2022/11/26 00:25:18;;;;;;;25.67;12.70;;;;;;;3.62;100.00;102428.78;1030517;28;20351;-84
2022/11/26 00:25:53;;;;;;;14.32;9.15;;;;;;;3.56;100.00;102421.41;1029366;28;20384;-84
2022/11/26 00:26:25;;;;;;;17.45;9.00;;;;;;;3.55;100.00;102426.78;1028925;28;20389;-84
2022/11/26 00:26:57;;;;;;;34.58;11.02;;;;;;;3.47;100.00;102439.78;1026880;28;20305;-84
2022/11/26 00:27:29;;;;;;;24.40;9.07;;;;;;;3.44;100.00;102430.34;1026466;28;20356;-84
2022/11/26 00:28:01;;;;;;;33.47;10.80;;;;;;;3.40;100.00;102435.03;1031318;28;20348;-84
2022/11/26 00:28:35;;;;;;;71.97;13.35;;;;;;;3.41;100.00;102435.88;1031462;28;20301;-84
2022/11/26 00:29:07;;;;;;;33.75;9.15;;;;;;;3.45;100.00;102425.91;1030684;28;20309;-84
2022/11/26 00:29:39;;;;;;;23.98;10.38;;;;;;;3.58;100.00;102434.44;1032093;28;20488;-84
2022/11/26 00:30:21;;;;;;;41.33;13.13;;;;;;;3.52;100.00;102437.56;1037073;28;20394;-83
2022/11/26 00:30:56;;;;;;;75.93;14.02;;;;;;;3.49;100.00;102435.22;1031297;28;20712;-84
2022/11/26 00:31:28;;;;;;;29.45;9.65;;;;;;;3.44;100.00;102440.03;1035121;28;20872;-84
2022/11/26 00:32:00;;;;;;;20.77;10.15;;;;;;;3.48;100.00;102436.19;1026809;28;20791;-84
2022/11/26 00:32:31;;;;;;;18.70;9.40;;;;;;;3.48;100.00;102431.75;1027830;28;20747;-84
2022/11/26 00:33:03;;;;;;;22.20;10.80;;;;;;;3.53;100.00;102431.34;1030673;28;20404;-84
2022/11/26 00:33:34;;;;;;;31.00;10.80;;;;;;;3.55;100.00;102434.69;1028262;28;20322;-84
2022/11/26 00:34:06;;;;;;;35.67;10.40;;;;;;;3.40;100.00;102429.78;1026742;28;20911;-84
2022/11/26 00:34:37;;;;;;;37.50;11.07;;;;;;;3.51;100.00;102431.47;1022981;29;20303;-84
2022/11/26 00:35:10;;;;;;;27.38;11.95;;;;;;;3.57;100.00;102435.41;1023736;28;20326;-84
2022/11/26 00:35:41;;;;;;;18.58;9.32;;;;;;;3.61;100.00;102432.38;1031343;28;20297;-83
2022/11/26 00:36:23;;;;;;;25.95;11.15;;;;;;;3.68;100.00;102432.69;1032095;28;20436;-84
2022/11/26 00:36:55;;;;;;;26.27;10.15;;;;;;;3.76;100.00;102440.75;1034906;28;20834;-84
2022/11/26 00:37:29;;;;;;;25.02;10.00;;;;;;;3.80;100.00;102436.03;1034879;28;20674;-84
2022/11/26 00:38:01;;;;;;;38.88;12.02;;;;;;;3.67;100.00;102437.13;1035731;28;20288;-84
2022/11/26 00:38:32;;;;;;;23.30;10.27;;;;;;;3.70;100.00;102438.66;1030800;28;20396;-84
2022/11/26 00:39:23;;;;;;;27.35;11.63;;;;;;;3.84;100.00;102433.03;1031879;28;20783;-84
2022/11/26 00:39:55;;;;;;;33.47;11.30;;;;;;;3.84;100.00;102435.69;1034912;28;20296;-84
2022/11/26 00:40:28;;;;;;;22.88;10.80;;;;;;;3.84;100.00;102438.31;1033130;28;20311;-84
2022/11/26 00:40:59;;;;;;;26.02;10.13;;;;;;;3.74;100.00;102437.41;1034049;28;20959;-84
2022/11/26 00:41:37;;;;;;;20.73;11.57;;;;;;;3.72;100.00;102440.19;1030363;28;20691;-84
2022/11/26 00:42:09;;;;;;;22.45;10.95;;;;;;;3.71;100.00;102442.94;1029149;28;20397;-84
2022/11/26 00:42:41;;;;;;;45.40;12.18;;;;;;;3.63;100.00;102440.16;1032051;28;20440;-84
2022/11/26 00:43:14;;;;;;;23.88;10.82;;;;;;;3.62;100.00;102439.31;1030790;28;20783;-84
2022/11/26 00:43:45;;;;;;;33.67;11.40;;;;;;;3.56;100.00;102442.47;1033527;28;20383;-83
2022/11/26 00:44:22;;;;;;;18.55;10.00;;;;;;;3.60;100.00;102448.31;1031482;28;20762;-83
2022/11/26 00:44:54;;;;;;;20.15;9.82;;;;;;;3.57;100.00;102444.16;1025169;28;20369;-84
2022/11/26 00:45:27;;;;;;;23.38;9.95;;;;;;;3.65;100.00;102438.22;1023831;28;20701;-84
2022/11/26 00:45:59;;;;;;;21.15;10.57;;;;;;;3.65;100.00;102443.50;1023753;28;20322;-84
2022/11/26 00:46:30;;;;;;;22.83;9.55;;;;;;;3.73;100.00;102443.66;1028291;28;20302;-84
2022/11/26 00:47:02;;;;;;;22.92;10.68;;;;;;;3.78;100.00;102444.09;1034405;28;20480;-84
2022/11/26 00:47:33;;;;;;;23.00;10.50;;;;;;;3.80;100.00;102451.84;1032120;28;20775;-84
2022/11/26 00:48:05;;;;;;;36.35;12.25;;;;;;;3.80;100.00;102452.69;1043188;28;20338;-84
2022/11/26 00:48:37;;;;;;;27.77;11.40;;;;;;;3.84;100.00;102448.03;1042915;28;20303;-84
2022/11/26 00:49:08;;;;;;;21.73;10.50;;;;;;;3.82;100.00;102448.13;1034001;28;20307;-84
2022/11/26 00:49:40;;;;;;;19.52;9.95;;;;;;;3.86;100.00;102446.91;1031471;28;20813;-83
2022/11/26 00:50:13;;;;;;;22.65;10.95;;;;;;;3.92;100.00;102456.91;1028509;28;20473;-84
2022/11/26 00:50:48;;;;;;;22.02;10.38;;;;;;;3.91;100.00;102455.25;1027409;28;20404;-84
2022/11/26 00:51:26;;;;;;;30.77;10.98;;;;;;;3.82;100.00;102461.31;1031396;28;20309;-84
2022/11/26 00:51:58;;;;;;;24.13;10.23;;;;;;;3.85;100.00;102455.78;1026489;28;20303;-84
2022/11/26 00:52:33;;;;;;;17.83;9.57;;;;;;;3.91;100.00;102454.41;1035261;28;20767;-84
2022/11/26 00:53:05;;;;;;;34.58;11.68;;;;;;;3.90;100.00;102456.22;1030499;28;20391;-84
2022/11/26 00:53:36;;;;;;;83.13;12.63;;;;;;;3.81;100.00;102454.34;1028883;28;20381;-84
2022/11/26 00:54:11;;;;;;;33.05;11.18;;;;;;;3.74;100.00;102450.59;1034833;28;20506;-84
2022/11/26 00:54:43;;;;;;;24.35;9.77;;;;;;;3.84;100.00;102456.75;1031815;28;20308;-84
2022/11/26 00:55:30;;;;;;;20.90;9.68;;;;;;;3.89;100.00;102456.34;1033642;28;20388;-84
2022/11/26 00:56:01;;;;;;;18.00;9.43;;;;;;;3.87;100.00;102456.50;1038905;28;20657;-83
2022/11/26 00:56:33;;;;;;;27.98;10.63;;;;;;;3.94;100.00;102454.16;1039030;28;20357;-84
2022/11/26 00:57:09;;;;;;;31.05;11.00;;;;;;;3.86;100.00;102456.63;1031955;28;20672;-84
2022/11/26 00:57:41;;;;;;;31.85;11.30;;;;;;;3.84;100.00;102464.66;1034798;28;20344;-84
2022/11/26 00:58:21;;;;;;;25.23;10.32;;;;;;;3.93;100.00;102463.03;1034713;28;20335;-84
2022/11/26 00:58:53;;;;;;;28.10;11.45;;;;;;;3.95;100.00;102463.72;1034581;28;20711;-84
2022/11/26 00:59:24;;;;;;;21.92;11.10;;;;;;;3.94;100.00;102465.53;1034581;28;20527;-84
2022/11/26 00:59:56;;;;;;;24.38;10.55;;;;;;;3.94;100.00;102470.81;1032800;28;20297;-84
2022/11/26 01:00:30;;;;;;;26.33;10.80;;;;;;;3.91;100.00;102465.78;1033710;28;20682;-84
2022/11/26 01:01:01;;;;;;;22.38;10.85;;;;;;;4.03;100.00;102464.72;1031165;28;20336;-84
2022/11/26 01:01:33;;;;;;;35.38;11.00;;;;;;;4.06;100.00;102465.41;1033512;28;20308;-84
2022/11/26 01:02:04;;;;;;;26.02;10.15;;;;;;;4.06;100.00;102462.78;1031260;28;20302;-84
2022/11/26 01:02:36;;;;;;;23.15;10.45;;;;;;;4.04;100.00;102458.47;1034084;28;20306;-84
2022/11/26 01:03:08;;;;;;;31.63;10.82;;;;;;;4.02;100.00;102463.06;1029729;28;20372;-84
2022/11/26 01:03:41;;;;;;;18.80;10.73;;;;;;;3.92;100.00;102466.63;1034829;28;20305;-84
2022/11/26 01:04:13;;;;;;;27.55;11.23;;;;;;;3.93;100.00;102463.88;1031546;28;20736;-84
2022/11/26 01:04:44;;;;;;;28.05;10.68;;;;;;;3.89;100.00;102465.09;1030540;28;20427;-84
2022/11/26 01:05:17;;;;;;;40.13;13.88;;;;;;;3.84;100.00;102467.31;1032101;28;20439;-84
2022/11/26 01:05:50;;;;;;;24.70;11.05;;;;;;;3.76;100.00;102467.09;1027226;28;20800;-84
2022/11/26 01:06:32;;;;;;;18.20;11.02;;;;;;;3.75;100.00;102469.88;1027643;28;20775;-84
2022/11/26 01:07:04;;;;;;;43.30;11.57;;;;;;;3.73;100.00;102464.72;1028677;28;20380;-84
2022/11/26 01:07:35;;;;;;;20.42;10.35;;;;;;;3.66;100.00;102471.50;1034635;28;20677;-83
2022/11/26 01:08:36;;;;;;;20.73;10.50;;;;;;;3.70;100.00;102470.28;1032750;28;20732;-84
2022/11/26 01:09:17;;;;;;;22.52;8.93;;;;;;;3.52;100.00;102469.19;1030844;28;20714;-83
2022/11/26 01:09:48;;;;;;;17.42;9.80;;;;;;;3.48;100.00;102467.78;1028323;28;20082;-84
2022/11/26 01:10:23;;;;;;;19.85;9.07;;;;;;;3.49;100.00;102474.72;1027406;28;20468;-84
2022/11/26 01:10:54;;;;;;;47.60;10.70;;;;;;;3.40;100.00;102466.66;1027982;28;20337;-84
2022/11/26 01:11:26;;;;;;;24.15;9.25;;;;;;;3.47;100.00;102471.38;1031630;28;20293;-84
2022/11/26 01:11:58;;;;;;;22.38;10.10;;;;;;;3.61;100.00;102473.69;1028840;28;20816;-84
2022/11/26 01:12:30;;;;;;;22.13;10.10;;;;;;;3.66;100.00;102471.50;1034461;28;20384;-84
2022/11/26 01:13:02;;;;;;;26.45;10.43;;;;;;;3.66;100.00;102469.69;1036119;28;20311;-84
2022/11/26 01:13:34;;;;;;;99.50;13.23;;;;;;;3.49;100.00;102470.28;1035426;28;20376;-84
2022/11/26 01:14:05;;;;;;;36.47;10.20;;;;;;;3.47;100.00;102471.38;1027783;28;20526;-84
2022/11/26 01:14:37;;;;;;;22.27;9.35;;;;;;;3.50;100.00;102468.50;1032310;28;20289;-84
2022/11/26 01:15:09;;;;;;;22.98;9.43;;;;;;;3.63;100.00;102466.50;1031924;28;20783;-84
2022/11/26 01:15:41;;;;;;;21.17;8.98;;;;;;;3.72;100.00;102470.97;1033806;28;20317;-84
2022/11/26 01:16:23;;;;;;;25.60;10.38;;;;;;;3.70;100.00;102467.63;1033457;28;20891;-84
2022/11/26 01:16:55;;;;;;;23.75;10.75;;;;;;;3.63;100.00;102469.97;1033531;28;20309;-84
2022/11/26 01:17:27;;;;;;;26.02;11.35;;;;;;;3.66;100.00;102468.88;1029417;28;20669;-84
2022/11/26 01:17:58;;;;;;;24.02;10.27;;;;;;;3.69;100.00;102477.34;1033332;28;20383;-84
2022/11/26 01:18:34;;;;;;;36.60;10.05;;;;;;;3.52;100.00;102466.56;1032269;28;20313;-84
2022/11/26 01:19:09;;;;;;;26.90;10.60;;;;;;;3.55;100.00;102471.56;1029901;28;20348;-84
2022/11/26 01:19:41;;;;;;;118.60;15.52;;;;;;;3.49;100.00;102480.00;1023634;28;20309;-84
2022/11/26 01:20:25;;;;;;;21.13;10.15;;;;;;;3.49;100.00;102470.28;1022902;28;20314;-84
2022/11/26 01:20:56;;;;;;;28.85;10.93;;;;;;;3.51;100.00;102471.00;1023740;28;20301;-84
2022/11/26 01:21:30;;;;;;;32.83;10.52;;;;;;;3.49;100.00;102469.44;1029635;28;20317;-84
2022/11/26 01:22:01;;;;;;;21.88;9.65;;;;;;;3.50;100.00;102471.13;1029673;28;20405;-84
2022/11/26 01:22:33;;;;;;;26.90;10.35;;;;;;;3.57;100.00;102474.94;1028796;28;20301;-84
2022/11/26 01:23:04;;;;;;;31.08;10.13;;;;;;;3.53;100.00;102476.97;1027703;28;20309;-84
2022/11/26 01:23:36;;;;;;;32.10;10.60;;;;;;;3.58;100.00;102477.44;1027900;28;20902;-84
2022/11/26 01:24:07;;;;;;;48.80;11.45;;;;;;;3.46;100.00;102474.97;1030186;28;20806;-84
2022/11/26 01:24:39;;;;;;;26.17;9.77;;;;;;;3.42;100.00;102477.88;1032602;28;20922;-84
2022/11/26 01:25:10;;;;;;;23.23;9.93;;;;;;;3.42;100.00;102474.41;1031102;28;20308;-83
2022/11/26 01:25:43;;;;;;;28.90;11.82;;;;;;;3.53;100.00;102476.97;1035865;28;20300;-84
2022/11/26 01:26:17;;;;;;;23.98;12.15;;;;;;;3.61;100.00;102479.81;1031629;28;20333;-84
2022/11/26 01:26:49;;;;;;;18.98;10.02;;;;;;;3.62;100.00;102475.38;1026753;28;20353;-84
2022/11/26 01:27:20;;;;;;;19.73;9.40;;;;;;;3.61;100.00;102478.97;1027294;28;20345;-84
2022/11/26 01:27:52;;;;;;;18.55;9.63;;;;;;;3.54;100.00;102472.53;1027482;28;21171;-84
2022/11/26 01:28:23;;;;;;;28.42;9.75;;;;;;;3.51;100.00;102472.78;1028481;28;20433;-84
2022/11/26 01:28:55;;;;;;;131.77;19.58;;;;;;;3.30;100.00;102476.28;1036042;28;20328;-84
2022/11/26 01:29:26;;;;;;;73.32;13.00;;;;;;;3.29;100.00;102477.25;1035080;28;20508;-84
2022/11/26 01:29:58;;;;;;;21.20;10.90;;;;;;;3.34;100.00;102480.34;1039752;28;20383;-84
2022/11/26 01:30:31;;;;;;;48.05;10.93;;;;;;;3.27;100.00;102481.78;1035601;28;20386;-84
2022/11/26 01:31:03;;;;;;;31.48;9.43;;;;;;;3.29;100.00;102479.88;1032566;28;20789;-84
2022/11/26 01:31:34;;;;;;;20.45;9.88;;;;;;;3.24;100.00;102482.03;1033536;28;20367;-84
2022/11/26 01:32:06;;;;;;;144.52;16.27;;;;;;;3.06;100.00;102478.31;1031680;28;20305;-84
2022/11/26 01:32:38;;;;;;;200.32;18.17;;;;;;;3.08;100.00;102473.78;1031843;28;20790;-84
2022/11/26 01:33:09;;;;;;;52.70;9.23;;;;;;;3.14;100.00;102475.88;1030513;28;20347;-84
2022/11/26 01:33:41;;;;;;;28.15;9.07;;;;;;;3.11;100.00;102481.41;1030778;28;20337;-84
2022/11/26 01:34:12;;;;;;;29.08;8.63;;;;;;;3.07;100.00;102474.72;1028022;28;20376;-84
2022/11/26 01:34:44;;;;;;;23.90;8.88;;;;;;;3.03;100.00;102473.31;1028017;28;20325;-84
2022/11/26 01:35:17;;;;;;;50.38;10.45;;;;;;;2.98;100.00;102467.56;1035651;28;20386;-84
2022/11/26 01:35:49;;;;;;;14.55;9.05;;;;;;;3.00;100.00;102477.00;1028554;28;20445;-84
2022/11/26 01:36:33;;;;;;;18.42;7.93;;;;;;;3.02;100.00;102469.84;1030619;28;20893;-84
2022/11/26 01:37:11;;;;;;;89.90;9.93;;;;;;;2.83;100.00;102482.00;1029694;28;20306;-84
2022/11/26 01:37:43;;;;;;;54.00;8.93;;;;;;;2.79;100.00;102470.91;1030415;28;20333;-84
2022/11/26 01:38:15;;;;;;;50.70;8.65;;;;;;;2.92;100.00;102475.97;1033531;28;20354;-84
2022/11/26 01:38:46;;;;;;;13.13;8.20;;;;;;;2.87;100.00;102472.91;1033768;28;20336;-84
2022/11/26 01:39:20;;;;;;;15.68;8.48;;;;;;;2.91;100.00;102474.31;1028006;28;20784;-84
2022/11/26 01:39:52;;;;;;;12.77;8.15;;;;;;;2.88;100.00;102474.56;1031799;28;20324;-84
2022/11/26 01:40:28;;;;;;;17.55;6.88;;;;;;;2.84;100.00;102479.25;1027964;28;20989;-84
2022/11/26 01:41:08;;;;;;;16.35;8.10;;;;;;;2.87;100.00;102479.00;1034229;28;20380;-84
2022/11/26 01:41:51;;;;;;;35.10;8.57;;;;;;;2.83;100.00;102479.38;1032769;28;20377;-84
2022/11/26 01:42:36;;;;;;;22.38;8.35;;;;;;;2.86;100.00;102476.50;1028481;28;20066;-84
2022/11/26 01:43:31;;;;;;;17.08;8.73;;;;;;;2.88;100.00;102474.56;1035603;28;20307;-84
2022/11/26 01:44:03;;;;;;;16.42;8.18;;;;;;;2.91;100.00;102479.56;1034823;28;20375;-84
2022/11/26 01:44:36;;;;;;;177.20;18.85;;;;;;;2.64;100.00;102478.22;1034972;28;20825;-84
2022/11/26 01:45:14;;;;;;;90.40;14.30;;;;;;;2.73;100.00;102477.47;1031319;28;20719;-84
2022/11/26 01:45:46;;;;;;;21.27;7.22;;;;;;;2.79;100.00;102474.38;1028740;28;20807;-84
2022/11/26 01:46:19;;;;;;;15.55;8.05;;;;;;;2.86;100.00;102476.50;1033029;28;20297;-84
2022/11/26 01:46:51;;;;;;;18.48;7.93;;;;;;;2.93;100.00;102480.28;1033110;28;20347;-84
2022/11/26 01:47:26;;;;;;;19.40;9.05;;;;;;;2.89;100.00;102478.88;1029215;28;20377;-84
2022/11/26 01:47:57;;;;;;;76.50;11.70;;;;;;;2.78;100.00;102475.31;1030296;28;20375;-84
2022/11/26 01:48:31;;;;;;;19.88;8.57;;;;;;;2.82;100.00;102477.72;1034625;28;20297;-84
2022/11/26 01:49:19;;;;;;;18.48;8.95;;;;;;;2.86;100.00;102481.75;1036892;28;20671;-84
2022/11/26 01:50:35;;;;;;;25.00;10.07;;;;;;;2.82;100.00;102475.06;1035521;28;20378;-84
2022/11/26 01:51:08;;;;;;;16.85;7.28;;;;;;;2.71;100.00;102483.81;1035455;28;20818;-84
2022/11/26 01:51:40;;;;;;;70.85;10.48;;;;;;;2.55;100.00;102489.50;1030873;28;20393;-84
2022/11/26 01:52:20;;;;;;;76.72;11.27;;;;;;;2.61;100.00;102478.47;1027360;28;20728;-84
2022/11/26 01:52:54;;;;;;;35.67;11.82;;;;;;;2.73;100.00;102482.72;1031649;28;20727;-84
2022/11/26 01:53:29;;;;;;;22.17;8.25;;;;;;;2.77;100.00;102483.34;1029607;28;20134;-84
2022/11/26 01:54:01;;;;;;;12.70;8.75;;;;;;;2.90;100.00;102480.53;1031486;28;20305;-84
2022/11/26 01:54:34;;;;;;;36.85;10.30;;;;;;;2.81;100.00;102490.03;1034753;28;20696;-84
2022/11/26 01:55:12;;;;;;;15.88;9.48;;;;;;;2.79;100.00;102486.69;1036187;28;20316;-84
2022/11/26 01:55:53;;;;;;;322.08;31.30;;;;;;;2.68;100.00;102484.06;1032808;28;20384;-84
2022/11/26 01:56:31;;;;;;;27.27;8.27;;;;;;;2.69;100.00;102491.84;1031160;28;20433;-84
2022/11/26 01:57:13;;;;;;;51.28;12.20;;;;;;;2.76;100.00;102490.41;1031374;28;20309;-84
2022/11/26 01:57:44;;;;;;;27.88;9.18;;;;;;;2.86;100.00;102487.03;1035085;28;20301;-83
2022/11/26 01:58:20;;;;;;;57.78;10.75;;;;;;;2.80;100.00;102483.09;1031264;28;20304;-84
2022/11/26 01:59:13;;;;;;;49.13;10.90;;;;;;;2.69;100.00;102486.59;1036064;28;20301;-84
2022/11/26 01:59:49;;;;;;;29.83;8.45;;;;;;;2.70;100.00;102487.41;1037831;28;20297;-84
2022/11/26 02:00:21;;;;;;;35.42;8.27;;;;;;;2.67;100.00;102488.50;1039465;28;20777;-84
2022/11/26 02:00:53;;;;;;;35.00;10.57;;;;;;;2.71;100.00;102491.72;1035228;28;20311;-84
2022/11/26 02:01:27;;;;;;;29.15;11.98;;;;;;;2.82;100.00;102485.59;1035473;28;20306;-84
2022/11/26 02:01:59;;;;;;;129.05;15.93;;;;;;;2.71;100.00;102484.66;1035994;28;20300;-84
2022/11/26 02:02:32;;;;;;;39.15;10.20;;;;;;;2.70;100.00;102493.50;1039169;28;20299;-84
2022/11/26 02:03:04;;;;;;;28.05;9.88;;;;;;;2.76;100.00;102487.78;1031476;28;20297;-84
2022/11/26 02:03:57;;;;;;;93.40;12.88;;;;;;;2.75;100.00;102491.38;1028748;28;20313;-84
2022/11/26 02:04:30;;;;;;;26.02;10.10;;;;;;;2.88;100.00;102479.84;1030841;28;20297;-84
2022/11/26 02:05:07;;;;;;;22.75;9.88;;;;;;;2.76;100.00;102481.69;1031028;28;20305;-84
2022/11/26 02:05:47;;;;;;;12.82;8.48;;;;;;;2.76;100.00;102484.31;1031540;28;20376;-84
2022/11/26 02:06:23;;;;;;;36.53;9.73;;;;;;;2.67;100.00;102483.25;1027218;28;20691;-84
2022/11/26 02:06:55;;;;;;;57.05;9.52;;;;;;;2.63;100.00;102479.19;1030556;28;20038;-84
2022/11/26 02:07:27;;;;;;;456.70;43.97;;;;;;;2.50;100.00;102482.94;1031463;28;20360;-84
2022/11/26 02:07:59;;;;;;;84.93;11.68;;;;;;;2.62;100.00;102485.41;1025934;28;20670;-84
2022/11/26 02:08:32;;;;;;;18.63;8.45;;;;;;;2.70;100.00;102488.25;1031367;28;20285;-84
2022/11/26 02:09:06;;;;;;;46.75;10.85;;;;;;;2.65;100.00;102485.16;1034076;28;20687;-84
2022/11/26 02:09:38;;;;;;;37.17;10.07;;;;;;;2.64;100.00;102483.50;1036299;28;20296;-84
2022/11/26 02:10:11;;;;;;;17.55;9.50;;;;;;;2.62;100.00;102480.16;1033326;28;20652;-84
2022/11/26 02:10:43;;;;;;;25.48;9.35;;;;;;;2.56;100.00;102483.28;1035113;28;20319;-84
2022/11/26 02:11:20;;;;;;;12.30;7.72;;;;;;;2.57;100.00;102482.31;1036168;28;20324;-84
2022/11/26 02:11:52;;;;;;;99.97;13.32;;;;;;;2.41;100.00;102476.59;1039379;28;20300;-84
2022/11/26 02:12:24;;;;;;;88.22;12.45;;;;;;;2.41;100.00;102477.44;1036346;28;20288;-83
2022/11/26 02:12:56;;;;;;;28.70;9.27;;;;;;;2.51;100.00;102476.72;1030969;28;20368;-84
2022/11/26 02:13:28;;;;;;;22.70;9.05;;;;;;;2.47;100.00;102473.50;1031294;28;20390;-84
2022/11/26 02:14:28;;;;;;;194.95;19.85;;;;;;;2.44;100.00;102482.47;1031454;28;20297;-84
2022/11/26 02:14:59;;;;;;;30.00;9.25;;;;;;;2.45;100.00;102472.78;1033031;28;20728;-83
2022/11/26 02:15:56;;;;;;;79.93;12.63;;;;;;;2.44;100.00;102482.47;1035053;28;20300;-84
2022/11/26 02:16:36;;;;;;;15.27;8.77;;;;;;;2.65;100.00;102485.16;1035085;28;20300;-84
2022/11/26 02:17:34;;;;;;;247.23;23.88;;;;;;;2.53;100.00;102483.53;1036904;28;20308;-84
2022/11/26 02:18:07;;;;;;;27.23;8.88;;;;;;;2.54;100.00;102485.19;1035562;28;20333;-84
2022/11/26 02:18:41;;;;;;;10.82;7.10;;;;;;;2.44;100.00;102479.81;1035333;28;20343;-84
2022/11/26 02:19:59;;;;;;;15.75;6.72;;;;;;;2.43;100.00;102479.94;1035368;28;20301;-84
2022/11/26 02:20:42;;;;;;;13.38;6.43;;;;;;;2.47;100.00;102484.88;1024398;28;20303;-84
2022/11/26 02:21:20;;;;;;;45.90;7.68;;;;;;;2.44;100.00;102481.63;1031637;28;20338;-84
2022/11/26 02:21:58;;;;;;;11.38;6.25;;;;;;;2.46;100.00;102479.69;1035076;28;20300;-84
2022/11/26 02:22:56;;;;;;;70.75;9.27;;;;;;;2.43;100.00;102485.22;1037275;28;20301;-84
2022/11/26 02:23:50;;;;;;;23.67;7.25;;;;;;;2.41;100.00;102487.97;1035407;28;20300;-83
2022/11/26 02:24:34;;;;;;;18.50;6.53;;;;;;;2.41;100.00;102485.34;1036144;28;21081;-84
2022/11/26 02:25:39;;;;;;;46.53;9.57;;;;;;;2.32;100.00;102491.34;1035135;28;20307;-84
2022/11/26 02:26:36;;;;;;;13.30;6.47;;;;;;;2.38;100.00;102487.38;1034171;28;20305;-84
2022/11/26 02:27:16;;;;;;;29.13;7.97;;;;;;;2.43;100.00;102490.47;1039217;28;20296;-84
2022/11/26 02:27:47;;;;;;;24.98;8.40;;;;;;;2.37;100.00;102493.59;1039601;28;20334;-84
2022/11/26 02:28:45;;;;;;;186.18;14.95;;;;;;;2.38;100.00;102487.38;1034732;28;20379;-84
2022/11/26 02:29:54;;;;;;;10.73;6.88;;;;;;;2.35;100.00;102485.00;1034932;28;20293;-84
2022/11/26 02:30:27;;;;;;;13.68;6.97;;;;;;;2.28;100.00;102481.19;1038120;28;20801;-84
2022/11/26 02:31:06;;;;;;;10.82;6.65;;;;;;;2.30;100.00;102485.38;1039463;28;20288;-84
2022/11/26 02:31:58;;;;;;;59.67;10.32;;;;;;;2.25;100.00;102481.44;1039521;28;20342;-84
2022/11/26 02:32:42;;;;;;;8.55;5.75;;;;;;;2.34;100.00;102481.53;1031517;28;20384;-84
2022/11/26 02:33:21;;;;;;;19.35;7.07;;;;;;;2.25;100.00;102482.28;1035898;28;20431;-84
2022/11/26 02:34:10;;;;;;;11.82;7.25;;;;;;;2.24;100.00;102485.03;1039001;28;20300;-84
2022/11/26 02:34:53;;;;;;;23.73;7.68;;;;;;;2.21;100.00;102485.25;1035417;28;20296;-84
2022/11/26 02:35:32;;;;;;;21.75;6.60;;;;;;;2.18;100.00;102481.91;1027999;28;20324;-84
2022/11/26 02:36:08;;;;;;;22.40;6.75;;;;;;;2.20;100.00;102483.59;1023309;28;20313;-84
2022/11/26 02:37:06;;;;;;;12.00;6.75;;;;;;;2.23;100.00;102483.34;1027421;28;20290;-84
2022/11/26 02:37:43;;;;;;;22.10;6.80;;;;;;;2.27;100.00;102487.41;1035200;28;20514;-84
2022/11/26 02:38:21;;;;;;;15.43;6.80;;;;;;;2.24;100.00;102485.03;1035624;28;20358;-84
2022/11/26 02:38:52;;;;;;;15.93;5.88;;;;;;;2.21;100.00;102488.72;1033760;28;20384;-84
2022/11/26 02:39:26;;;;;;;13.38;7.55;;;;;;;2.37;100.00;102491.81;1033245;28;20706;-84
2022/11/26 02:39:57;;;;;;;169.88;17.40;;;;;;;2.32;100.00;102482.63;1031118;28;20301;-84
2022/11/26 02:40:29;;;;;;;24.30;8.85;;;;;;;2.28;100.00;102486.44;1030996;28;20341;-84
2022/11/26 02:41:01;;;;;;;10.80;7.38;;;;;;;2.27;100.00;102495.28;1031167;28;20320;-83
2022/11/26 02:41:40;;;;;;;34.70;8.48;;;;;;;2.20;100.00;102494.09;1035295;28;20763;-84
2022/11/26 02:42:28;;;;;;;251.50;19.90;;;;;;;2.14;100.00;102490.16;1032954;28;20351;-84
2022/11/26 02:43:00;;;;;;;24.42;7.13;;;;;;;2.12;100.00;102486.81;1038792;28;20104;-84